Time;durP1;ratioP1;P1;durP2;ratioP2;P2;SDS_P1;SDS_P2;PMS_P1;PMS_P2;Temp;Humidity;BMP_temperature;BMP_pressure;BME280_temperature;BME280_humidity;BME280_pressure;Samples;Min_cycle;Max_cycle;Signal;HPM_P1;HPM_P2
2021/04/19 00:00:15;;;;;;;20.00;13.98;;;9.30;99.90;;;;;;5020361;28;20047;-64
2021/04/19 00:02:42;;;;;;;25.10;13.70;;;9.30;99.90;;;;;;5017174;28;20112;-64
2021/04/19 00:05:19;;;;;;;24.52;14.00;;;9.30;99.90;;;;;;5020887;28;20021;-63
2021/04/19 00:07:45;;;;;;;20.67;13.23;;;9.30;99.90;;;;;;5015081;28;20042;-64
2021/04/19 00:10:13;;;;;;;20.80;13.85;;;9.20;99.90;;;;;;5011241;28;20534;-64
2021/04/19 00:12:39;;;;;;;20.02;13.48;;;9.20;99.90;;;;;;5018597;28;20033;-60
2021/04/19 00:15:06;;;;;;;17.33;13.48;;;9.20;99.90;;;;;;5001405;28;20104;-63
2021/04/19 00:17:33;;;;;;;21.58;14.10;;;9.10;99.90;;;;;;5002365;28;20126;-63
2021/04/19 00:19:58;;;;;;;21.38;14.45;;;9.10;99.90;;;;;;5010656;28;20099;-64
2021/04/19 00:22:24;;;;;;;20.77;13.63;;;9.10;99.90;;;;;;5021202;28;20022;-63
2021/04/19 00:24:49;;;;;;;20.85;14.98;;;9.10;99.90;;;;;;5014515;28;20065;-64
2021/04/19 00:27:15;;;;;;;23.30;14.20;;;9.00;99.90;;;;;;5017406;28;20034;-64
2021/04/19 00:29:40;;;;;;;21.42;15.18;;;9.00;99.90;;;;;;5022473;28;20048;-63
2021/04/19 00:32:06;;;;;;;19.90;13.93;;;8.90;99.90;;;;;;5020054;28;20123;-63
2021/04/19 00:34:32;;;;;;;19.45;14.55;;;8.90;99.90;;;;;;5016434;28;20513;-64
2021/04/19 00:36:58;;;;;;;21.17;15.52;;;8.90;99.90;;;;;;5011341;28;20816;-64
2021/04/19 00:39:23;;;;;;;19.80;14.68;;;8.80;99.90;;;;;;5010885;28;20037;-64
2021/04/19 00:41:49;;;;;;;21.10;14.43;;;8.80;99.90;;;;;;5020957;28;20044;-63
2021/04/19 00:44:15;;;;;;;23.08;16.20;;;8.80;99.90;;;;;;5016740;28;20100;-64
2021/04/19 00:46:41;;;;;;;22.27;13.98;;;8.80;99.90;;;;;;5014142;28;20494;-63
2021/04/19 00:49:07;;;;;;;22.40;15.13;;;8.70;99.90;;;;;;5012487;28;20180;-64
2021/04/19 00:51:32;;;;;;;23.70;15.50;;;8.70;99.90;;;;;;5021541;28;20545;-64
2021/04/19 00:53:58;;;;;;;22.40;14.90;;;8.70;99.90;;;;;;5012039;28;20067;-64
2021/04/19 00:56:24;;;;;;;23.77;15.45;;;8.70;99.90;;;;;;5010253;28;20130;-63
2021/04/19 00:58:50;;;;;;;22.55;14.88;;;8.70;99.90;;;;;;5016460;28;20025;-63
2021/04/19 01:01:16;;;;;;;22.83;16.58;;;8.60;99.90;;;;;;5016868;28;20104;-64
2021/04/19 01:03:43;;;;;;;22.48;15.82;;;8.60;99.90;;;;;;5013471;28;20030;-64
2021/04/19 01:06:10;;;;;;;24.65;15.65;;;8.60;99.90;;;;;;5015697;28;20048;-64
2021/04/19 01:08:36;;;;;;;20.67;15.00;;;8.60;99.90;;;;;;5010312;28;20483;-64
2021/04/19 01:11:02;;;;;;;23.50;15.38;;;8.60;99.90;;;;;;5018968;28;20041;-64
2021/04/19 01:13:28;;;;;;;21.98;15.13;;;8.60;99.90;;;;;;5016261;28;20025;-64
2021/04/19 01:15:53;;;;;;;20.05;15.50;;;8.60;99.90;;;;;;5013468;28;20473;-65
2021/04/19 01:18:19;;;;;;;21.85;15.50;;;8.70;99.90;;;;;;5001610;28;20570;-64
2021/04/19 01:20:47;;;;;;;22.35;14.63;;;8.70;99.90;;;;;;5018081;28;20025;-64
2021/04/19 01:23:14;;;;;;;21.98;15.13;;;8.70;99.90;;;;;;5012546;28;20062;-64
2021/04/19 01:25:40;;;;;;;24.13;14.50;;;8.70;99.90;;;;;;5018358;28;20141;-64
2021/04/19 01:28:06;;;;;;;20.45;14.43;;;8.80;99.90;;;;;;5017751;28;20025;-63
2021/04/19 01:30:34;;;;;;;23.63;15.50;;;8.70;99.90;;;;;;5012429;28;20037;-64
2021/04/19 01:33:00;;;;;;;24.48;16.05;;;8.70;99.90;;;;;;5008498;28;20053;-64
2021/04/19 01:35:26;;;;;;;21.02;15.63;;;8.60;99.90;;;;;;5016028;28;20076;-64
2021/04/19 01:37:52;;;;;;;23.50;14.60;;;8.60;99.90;;;;;;5012196;28;20034;-63
2021/04/19 01:40:18;;;;;;;23.40;15.40;;;8.50;99.90;;;;;;5018509;28;20041;-64
2021/04/19 01:42:45;;;;;;;20.45;15.55;;;8.50;99.90;;;;;;5015843;28;20036;-62
2021/04/19 01:45:13;;;;;;;20.10;15.50;;;8.50;99.90;;;;;;5020665;28;20026;-62
2021/04/19 01:47:38;;;;;;;27.00;16.08;;;8.50;99.90;;;;;;5021376;28;20583;-63
2021/04/19 01:50:10;;;;;;;21.13;15.27;;;8.50;99.90;;;;;;5014430;28;20097;-64
2021/04/19 01:52:35;;;;;;;22.23;15.50;;;8.50;99.90;;;;;;5020842;28;20037;-64
2021/04/19 01:55:04;;;;;;;22.70;15.23;;;8.50;99.90;;;;;;5012264;28;20045;-64
2021/04/19 01:57:29;;;;;;;24.40;16.13;;;8.50;99.90;;;;;;5012309;28;20029;-63
2021/04/19 01:59:55;;;;;;;20.45;15.90;;;8.40;99.90;;;;;;5016026;28;20026;-63
2021/04/19 02:02:31;;;;;;;25.85;16.05;;;8.40;99.90;;;;;;5016574;28;20060;-64
2021/04/19 02:05:11;;;;;;;24.60;16.50;;;8.40;99.90;;;;;;5003780;28;20037;-64
2021/04/19 02:07:42;;;;;;;26.08;17.40;;;8.40;99.90;;;;;;5006769;28;20034;-64
2021/04/19 02:10:28;;;;;;;26.02;16.02;;;8.40;99.90;;;;;;5012067;28;20087;-63
2021/04/19 02:12:59;;;;;;;26.58;16.70;;;8.40;99.90;;;;;;5007818;28;20032;-64
2021/04/19 02:15:34;;;;;;;25.35;17.02;;;8.40;99.90;;;;;;5018248;28;20049;-64
2021/04/19 02:18:23;;;;;;;24.73;16.88;;;8.40;99.90;;;;;;4995444;28;20100;-64
2021/04/19 02:20:55;;;;;;;21.35;16.25;;;8.40;99.90;;;;;;5020066;28;20513;-64
2021/04/19 02:23:39;;;;;;;23.65;16.50;;;8.40;99.90;;;;;;5021030;28;20053;-64
2021/04/19 02:26:21;;;;;;;21.90;16.67;;;8.40;99.90;;;;;;5016862;28;20033;-64
2021/04/19 02:29:04;;;;;;;25.60;16.02;;;8.30;99.90;;;;;;5005200;28;20046;-63
2021/04/19 02:31:45;;;;;;;26.52;16.50;;;8.40;99.90;;;;;;5006960;28;20026;-64
2021/04/19 02:34:18;;;;;;;22.10;16.08;;;8.40;99.90;;;;;;5016995;28;20025;-63
2021/04/19 02:36:47;;;;;;;24.73;17.63;;;8.40;99.90;;;;;;5016759;28;20022;-62
2021/04/19 02:39:15;;;;;;;23.80;16.92;;;8.30;99.90;;;;;;5011175;28;20518;-64
2021/04/19 02:41:42;;;;;;;25.75;17.25;;;8.20;99.90;;;;;;5017171;28;20044;-64
2021/04/19 02:44:09;;;;;;;23.52;16.65;;;8.20;99.90;;;;;;5009049;28;20018;-64
2021/04/19 02:46:36;;;;;;;25.65;16.40;;;8.20;99.90;;;;;;5006162;28;20030;-63
2021/04/19 02:49:03;;;;;;;24.65;17.40;;;8.20;99.90;;;;;;5008122;28;20507;-64
2021/04/19 02:51:29;;;;;;;29.75;17.42;;;8.20;99.90;;;;;;5011226;28;20028;-64
2021/04/19 02:53:56;;;;;;;23.63;17.95;;;8.20;99.90;;;;;;5014619;28;20021;-64
2021/04/19 02:56:22;;;;;;;23.20;17.73;;;8.20;99.90;;;;;;5015109;28;20040;-64
2021/04/19 02:58:51;;;;;;;27.50;18.90;;;8.20;99.90;;;;;;5008014;28;20034;-64
2021/04/19 03:01:22;;;;;;;29.45;18.05;;;8.20;99.90;;;;;;5015038;28;20025;-64
2021/04/19 03:03:50;;;;;;;26.67;17.85;;;8.30;99.90;;;;;;5011106;28;20634;-64
2021/04/19 03:06:18;;;;;;;26.65;18.60;;;8.20;99.90;;;;;;5018658;28;20422;-64
2021/04/19 03:08:54;;;;;;;29.05;18.45;;;8.20;99.90;;;;;;5007877;28;20029;-62
2021/04/19 03:11:23;;;;;;;30.17;19.00;;;8.20;99.90;;;;;;5001698;28;20026;-64
2021/04/19 03:13:52;;;;;;;29.05;18.67;;;8.20;99.90;;;;;;5017699;28;20076;-64
2021/04/19 03:16:21;;;;;;;27.67;18.45;;;8.20;99.90;;;;;;5012968;28;20026;-61
2021/04/19 03:18:50;;;;;;;27.27;19.02;;;8.20;99.90;;;;;;4992024;28;20048;-64
2021/04/19 03:21:24;;;;;;;29.65;20.83;;;8.20;99.90;;;;;;5014148;28;20033;-64
2021/04/19 03:23:52;;;;;;;30.02;19.58;;;8.20;99.90;;;;;;5024133;28;20033;-64
2021/04/19 03:26:19;;;;;;;28.25;20.08;;;8.30;99.90;;;;;;5015905;28;20077;-62
2021/04/19 03:28:46;;;;;;;33.28;21.90;;;8.30;99.90;;;;;;5006443;28;20057;-63
2021/04/19 03:31:20;;;;;;;24.73;19.80;;;8.30;99.90;;;;;;5006379;28;20021;-64
2021/04/19 03:33:47;;;;;;;24.93;20.13;;;8.30;99.90;;;;;;5012745;28;20407;-64
2021/04/19 03:36:14;;;;;;;27.42;20.55;;;8.40;99.90;;;;;;5003056;28;20312;-64
2021/04/19 03:38:42;;;;;;;27.33;19.23;;;8.30;99.90;;;;;;5007915;28;20022;-61
2021/04/19 03:41:09;;;;;;;29.17;19.77;;;8.40;99.90;;;;;;5020998;28;20040;-64
2021/04/19 03:43:36;;;;;;;27.17;18.50;;;8.40;99.90;;;;;;5010916;28;20506;-62
2021/04/19 03:46:05;;;;;;;25.50;18.60;;;8.40;99.90;;;;;;5013167;28;20022;-64
2021/04/19 03:48:33;;;;;;;24.60;17.38;;;8.40;99.90;;;;;;5007346;28;20104;-64
2021/04/19 03:51:07;;;;;;;27.35;16.60;;;8.40;99.90;;;;;;5009213;28;20040;-63
2021/04/19 03:53:35;;;;;;;24.90;16.95;;;8.40;99.90;;;;;;5021109;28;20022;-64
2021/04/19 03:56:02;;;;;;;26.40;17.63;;;8.30;99.90;;;;;;5017479;28;20034;-64
2021/04/19 03:58:31;;;;;;;27.27;18.95;;;8.20;99.90;;;;;;5018897;28;20074;-61
2021/04/19 04:00:58;;;;;;;28.23;19.23;;;8.20;99.90;;;;;;5008762;28;20034;-64
2021/04/19 04:03:25;;;;;;;24.35;19.13;;;8.20;99.90;;;;;;5016632;28;20060;-64
2021/04/19 04:05:52;;;;;;;29.40;20.45;;;8.20;99.90;;;;;;5017294;28;20121;-63
2021/04/19 04:08:18;;;;;;;28.90;20.92;;;8.20;99.90;;;;;;5013274;28;20037;-64
2021/04/19 04:10:46;;;;;;;30.85;21.55;;;8.20;99.90;;;;;;5012434;28;20025;-62
2021/04/19 04:13:11;;;;;;;28.15;21.83;;;8.20;99.90;;;;;;5010952;28;20036;-65
2021/04/19 04:15:49;;;;;;;32.22;22.63;;;8.10;99.90;;;;;;5019185;28;20029;-64
2021/04/19 04:18:15;;;;;;;34.25;25.02;;;8.10;99.90;;;;;;4995983;28;20034;-64
2021/04/19 04:20:40;;;;;;;36.97;25.52;;;8.10;99.90;;;;;;5018268;28;20648;-61
2021/04/19 04:23:07;;;;;;;36.22;26.35;;;8.10;99.90;;;;;;5010550;28;20022;-64
2021/04/19 04:25:32;;;;;;;37.80;28.23;;;8.10;99.90;;;;;;5014040;28;20076;-64
2021/04/19 04:27:58;;;;;;;32.92;26.30;;;8.10;99.90;;;;;;5019999;28;20025;-64
2021/04/19 04:30:24;;;;;;;36.83;27.73;;;8.10;99.90;;;;;;5011075;28;20455;-63
2021/04/19 04:32:49;;;;;;;42.35;26.67;;;8.10;99.90;;;;;;5011231;28;20022;-64
2021/04/19 04:35:16;;;;;;;38.75;28.70;;;8.10;99.90;;;;;;5015059;28;20398;-63
2021/04/19 04:37:41;;;;;;;40.58;27.55;;;8.10;99.90;;;;;;5015379;28;20053;-66
2021/04/19 04:40:08;;;;;;;34.58;25.73;;;8.10;99.90;;;;;;5014365;28;20072;-65
2021/04/19 04:42:35;;;;;;;37.85;26.83;;;8.20;99.90;;;;;;5019459;28;20084;-63
2021/04/19 04:45:01;;;;;;;32.78;26.15;;;8.20;99.90;;;;;;5012525;28;20487;-64
2021/04/19 04:47:35;;;;;;;34.35;25.63;;;8.30;99.90;;;;;;5009263;28;20041;-64
2021/04/19 04:50:13;;;;;;;38.35;26.95;;;8.30;99.90;;;;;;5010202;28;20079;-64
2021/04/19 04:53:02;;;;;;;36.22;26.23;;;8.20;99.90;;;;;;5010499;28;20030;-64
2021/04/19 04:55:29;;;;;;;38.63;27.13;;;8.20;99.90;;;;;;5011327;28;20025;-64
2021/04/19 04:57:55;;;;;;;39.53;27.33;;;8.20;99.90;;;;;;5009399;28;20030;-64
2021/04/19 05:00:22;;;;;;;36.63;28.35;;;8.20;99.90;;;;;;5010992;28;20138;-64
2021/04/19 05:02:49;;;;;;;44.13;27.65;;;8.20;99.90;;;;;;5008919;28;20099;-63
2021/04/19 05:05:16;;;;;;;33.70;25.13;;;8.20;99.90;;;;;;5013727;28;20022;-63
2021/04/19 05:07:43;;;;;;;38.00;27.65;;;8.20;99.90;;;;;;5012697;28;20014;-63
2021/04/19 05:10:10;;;;;;;35.80;25.90;;;8.20;99.90;;;;;;5022702;28;20022;-64
2021/04/19 05:12:41;;;;;;;32.13;25.58;;;8.20;99.90;;;;;;5010471;28;20042;-64
2021/04/19 05:15:14;;;;;;;34.92;25.00;;;8.20;99.90;;;;;;5021256;28;20110;-63
2021/04/19 05:17:44;;;;;;;31.67;22.83;;;8.30;99.90;;;;;;5001219;28;20534;-63
2021/04/19 05:20:11;;;;;;;35.38;25.27;;;8.30;99.90;;;;;;5013524;28;20040;-64
2021/04/19 05:22:38;;;;;;;36.80;25.05;;;8.30;99.90;;;;;;5012202;28;20034;-64
2021/04/19 05:25:05;;;;;;;31.48;24.30;;;8.30;99.90;;;;;;5018278;28;20034;-64
2021/04/19 05:27:32;;;;;;;28.45;22.88;;;8.30;99.90;;;;;;5012589;28;20033;-64
2021/04/19 05:29:58;;;;;;;28.00;21.30;;;8.40;99.90;;;;;;5017967;28;20029;-64
2021/04/19 05:32:26;;;;;;;26.60;20.35;;;8.40;99.90;;;;;;5015969;28;20117;-64
2021/04/19 05:34:51;;;;;;;29.92;20.75;;;8.40;99.90;;;;;;5015005;28;20046;-63
2021/04/19 05:37:18;;;;;;;27.45;20.88;;;8.40;99.90;;;;;;5013619;28;20040;-64
2021/04/19 05:39:44;;;;;;;28.42;21.08;;;8.50;99.90;;;;;;5014728;28;20033;-63
2021/04/19 05:42:13;;;;;;;30.20;20.70;;;8.50;99.90;;;;;;5017426;28;20022;-64
2021/04/19 05:44:38;;;;;;;26.88;21.33;;;8.50;99.90;;;;;;5015306;28;20029;-64
2021/04/19 05:47:04;;;;;;;24.13;19.00;;;8.40;99.90;;;;;;5015348;28;20018;-63
2021/04/19 05:49:30;;;;;;;24.70;18.42;;;8.40;99.90;;;;;;5019818;28;20447;-64
2021/04/19 05:51:58;;;;;;;24.95;16.75;;;8.40;99.90;;;;;;5015221;28;20036;-64
2021/04/19 05:54:25;;;;;;;21.10;15.48;;;8.50;99.90;;;;;;5017618;28;20120;-64
2021/04/19 05:57:18;;;;;;;26.17;17.67;;;8.50;99.90;;;;;;5020082;28;20031;-64
2021/04/19 06:00:19;;;;;;;18.10;13.75;;;8.50;99.90;;;;;;5023978;28;20029;-63
2021/04/19 06:02:56;;;;;;;17.00;13.75;;;8.50;99.90;;;;;;4947422;28;20043;-60
2021/04/19 06:05:32;;;;;;;17.60;13.15;;;8.50;99.90;;;;;;5008829;28;20049;-64
2021/04/19 06:08:01;;;;;;;21.08;16.23;;;8.60;99.90;;;;;;5009254;28;20053;-63
2021/04/19 06:10:35;;;;;;;19.17;14.38;;;8.60;99.90;;;;;;5013572;28;20064;-62
2021/04/19 06:13:02;;;;;;;20.90;14.32;;;8.60;99.90;;;;;;5010025;28;20527;-64
2021/04/19 06:15:29;;;;;;;19.75;15.02;;;8.60;99.90;;;;;;5020603;28;20573;-63
2021/04/19 06:17:55;;;;;;;17.92;14.43;;;8.60;99.90;;;;;;4999729;28;20103;-64
2021/04/19 06:20:22;;;;;;;17.42;13.25;;;8.70;99.90;;;;;;5020901;28;20163;-64
2021/04/19 06:22:52;;;;;;;16.13;13.70;;;8.70;99.90;;;;;;5012220;28;20096;-64
2021/04/19 06:25:19;;;;;;;15.43;12.38;;;8.70;99.90;;;;;;5011931;28;20558;-65
2021/04/19 06:27:45;;;;;;;17.45;13.32;;;8.70;99.90;;;;;;5008837;28;20025;-63
2021/04/19 06:30:19;;;;;;;16.58;14.10;;;8.70;99.90;;;;;;5008695;28;20080;-63
2021/04/19 06:32:47;;;;;;;18.60;13.43;;;8.70;99.90;;;;;;5008238;28;20091;-61
2021/04/19 06:35:16;;;;;;;20.15;13.98;;;8.80;99.90;;;;;;5012373;28;20153;-63
2021/04/19 06:37:42;;;;;;;22.83;14.38;;;8.80;99.90;;;;;;5012640;28;20075;-64
2021/04/19 06:40:08;;;;;;;20.00;13.63;;;8.90;99.90;;;;;;5010223;28;20084;-64
2021/04/19 06:42:35;;;;;;;18.50;14.38;;;8.90;99.90;;;;;;5013436;28;20372;-63
2021/04/19 06:45:04;;;;;;;15.60;11.88;;;9.00;99.90;;;;;;5020020;28;20025;-64
2021/04/19 06:47:31;;;;;;;17.42;11.65;;;9.00;99.90;;;;;;5011942;28;20033;-64
2021/04/19 06:49:58;;;;;;;14.85;11.48;;;9.10;99.90;;;;;;5016861;28;20441;-63
2021/04/19 06:52:25;;;;;;;16.45;12.25;;;9.20;99.90;;;;;;5009131;28;20050;-64
2021/04/19 06:54:50;;;;;;;16.10;12.43;;;9.20;99.90;;;;;;5016705;28;20443;-64
2021/04/19 06:57:19;;;;;;;13.80;10.30;;;9.20;99.90;;;;;;5016217;28;20129;-64
2021/04/19 06:59:46;;;;;;;16.35;12.65;;;9.20;99.90;;;;;;5012120;28;20025;-63
2021/04/19 07:02:24;;;;;;;15.65;11.68;;;9.20;99.90;;;;;;5017615;28;20407;-65
2021/04/19 07:04:51;;;;;;;16.30;12.48;;;9.10;99.90;;;;;;5019876;28;20391;-64
2021/04/19 07:07:23;;;;;;;16.08;11.85;;;9.10;99.90;;;;;;5016819;28;20376;-64
2021/04/19 07:09:51;;;;;;;16.55;12.68;;;9.10;99.90;;;;;;5003809;28;20040;-64
2021/04/19 07:12:19;;;;;;;15.00;11.45;;;9.00;99.90;;;;;;4999311;28;20590;-64
2021/04/19 07:14:54;;;;;;;17.40;13.73;;;9.00;99.90;;;;;;5006959;28;20130;-61
2021/04/19 07:17:20;;;;;;;15.57;12.27;;;9.00;99.90;;;;;;5007473;28;20025;-63
2021/04/19 07:19:46;;;;;;;14.18;11.77;;;8.90;99.90;;;;;;4994185;28;20400;-64
2021/04/19 07:22:15;;;;;;;16.73;12.30;;;8.90;99.90;;;;;;5013742;28;20022;-63
2021/04/19 07:24:41;;;;;;;16.17;11.23;;;8.90;99.90;;;;;;5016217;28;20028;-64
2021/04/19 07:27:10;;;;;;;17.70;11.93;;;8.80;99.90;;;;;;5014947;28;20139;-64
2021/04/19 07:29:36;;;;;;;13.82;9.63;;;8.80;99.90;;;;;;5014665;28;20030;-64
2021/04/19 07:32:02;;;;;;;11.95;9.88;;;8.80;99.90;;;;;;5015965;28;20026;-64
2021/04/19 07:34:29;;;;;;;12.73;9.35;;;8.80;99.90;;;;;;5007483;28;20042;-64
2021/04/19 07:36:58;;;;;;;12.95;9.98;;;8.80;99.90;;;;;;5007147;28;20022;-63
2021/04/19 07:39:25;;;;;;;12.48;9.25;;;8.90;99.90;;;;;;5013396;28;20053;-64
2021/04/19 07:41:56;;;;;;;13.45;9.75;;;8.90;99.90;;;;;;5015844;28;20045;-63
2021/04/19 07:44:37;;;;;;;13.50;10.02;;;8.90;99.90;;;;;;5012859;28;20052;-64
2021/04/19 07:47:30;;;;;;;13.82;11.27;;;9.00;99.90;;;;;;5007161;28;20022;-63
2021/04/19 07:50:08;;;;;;;16.88;10.98;;;9.00;99.90;;;;;;5004160;28;20394;-64
2021/04/19 07:52:53;;;;;;;16.85;12.73;;;9.10;99.90;;;;;;5011629;28;20026;-63
2021/04/19 07:55:30;;;;;;;15.63;10.65;;;9.10;99.90;;;;;;4997350;28;20120;-60
2021/04/19 07:57:56;;;;;;;13.82;10.88;;;9.10;99.90;;;;;;5007693;28;20030;-65
2021/04/19 08:00:23;;;;;;;14.77;11.50;;;9.30;99.90;;;;;;5005209;28;20093;-64
2021/04/19 08:02:59;;;;;;;15.57;11.85;;;9.40;99.90;;;;;;5014947;28;20022;-64
2021/04/19 08:05:33;;;;;;;16.42;11.15;;;9.50;99.90;;;;;;5021340;28;20770;-63
2021/04/19 08:07:59;;;;;;;15.70;11.95;;;9.50;99.90;;;;;;5013865;28;20029;-64
2021/04/19 08:10:25;;;;;;;19.42;11.50;;;9.60;99.90;;;;;;5025117;28;20030;-64
2021/04/19 08:13:01;;;;;;;15.05;11.40;;;9.70;99.90;;;;;;5012390;28;20142;-64
2021/04/19 08:15:27;;;;;;;15.98;11.30;;;9.80;99.90;;;;;;5016650;28;21611;-65
2021/04/19 08:18:10;;;;;;;14.50;11.77;;;9.80;99.90;;;;;;4997600;28;20091;-64
2021/04/19 08:20:37;;;;;;;19.55;11.40;;;9.80;99.90;;;;;;5016317;28;20621;-64
2021/04/19 08:23:08;;;;;;;15.10;11.63;;;9.80;99.90;;;;;;5012403;28;20021;-64
2021/04/19 08:25:45;;;;;;;14.52;11.35;;;9.80;99.90;;;;;;5015190;28;20022;-64
2021/04/19 08:28:21;;;;;;;16.25;12.75;;;9.80;99.90;;;;;;5014044;28;20030;-64
2021/04/19 08:30:49;;;;;;;18.08;12.98;;;9.80;99.90;;;;;;5020382;28;20034;-61
2021/04/19 08:33:15;;;;;;;17.08;12.13;;;9.90;99.90;;;;;;5007651;28;20018;-64
2021/04/19 08:35:43;;;;;;;17.73;12.40;;;10.00;99.90;;;;;;5013961;28;20030;-64
2021/04/19 08:38:09;;;;;;;14.55;11.85;;;10.20;99.90;;;;;;5017190;28;20063;-64
2021/04/19 08:40:38;;;;;;;16.15;11.73;;;10.20;99.90;;;;;;5007663;28;20030;-63
2021/04/19 08:43:10;;;;;;;12.63;9.23;;;10.50;99.90;;;;;;5010598;28;20101;-65
2021/04/19 08:45:40;;;;;;;12.35;9.48;;;10.50;99.90;;;;;;5007513;28;20026;-64
2021/04/19 08:48:11;;;;;;;14.05;10.43;;;10.40;99.90;;;;;;5008978;28;20030;-64
2021/04/19 08:50:39;;;;;;;11.98;9.93;;;10.50;99.90;;;;;;5011747;28;20053;-64
2021/04/19 08:53:07;;;;;;;15.77;11.13;;;10.80;99.90;;;;;;5017942;28;20519;-64
2021/04/19 08:55:33;;;;;;;10.95;9.23;;;11.00;99.90;;;;;;5012548;28;20041;-64
2021/04/19 08:58:05;;;;;;;10.65;8.70;;;11.40;99.90;;;;;;5014784;28;20030;-63
2021/04/19 09:00:31;;;;;;;13.07;7.60;;;11.70;99.90;;;;;;5011388;28;20038;-65
2021/04/19 09:03:01;;;;;;;10.95;9.18;;;11.90;99.90;;;;;;5010890;28;20111;-62
2021/04/19 09:05:27;;;;;;;9.73;8.30;;;12.00;99.90;;;;;;5018132;28;20038;-64
2021/04/19 09:08:03;;;;;;;10.57;9.00;;;11.80;99.90;;;;;;5008593;28;20862;-64
2021/04/19 09:10:52;;;;;;;11.52;9.48;;;11.60;99.90;;;;;;5012084;28;20030;-64
2021/04/19 09:13:38;;;;;;;9.80;8.60;;;11.40;99.90;;;;;;5005209;28;20452;-65
2021/04/19 09:16:22;;;;;;;12.00;8.35;;;11.60;99.90;;;;;;5006810;28;20034;-64
2021/04/19 09:18:53;;;;;;;9.25;7.07;;;11.90;99.90;;;;;;5005115;28;20563;-62
2021/04/19 09:21:32;;;;;;;8.52;7.10;;;12.10;99.90;;;;;;5012157;28;20562;-64
2021/04/19 09:23:57;;;;;;;8.65;7.75;;;12.90;99.90;;;;;;5018553;28;20738;-65
2021/04/19 09:26:51;;;;;;;6.18;5.50;;;14.00;99.90;;;;;;5013605;28;20052;-65
2021/04/19 09:29:25;;;;;;;6.72;5.55;;;14.80;99.90;;;;;;5008257;28;20757;-62
2021/04/19 09:31:59;;;;;;;5.55;5.05;;;14.80;99.90;;;;;;5013415;28;20033;-63
2021/04/19 09:34:44;;;;;;;7.55;6.43;;;14.50;99.90;;;;;;5015182;28;20501;-62
2021/04/19 09:37:18;;;;;;;6.95;6.25;;;14.30;99.90;;;;;;5013177;28;20038;-63
2021/04/19 09:39:57;;;;;;;5.72;5.13;;;14.20;99.90;;;;;;5018042;28;20028;-63
2021/04/19 09:43:02;;;;;;;6.55;4.72;;;14.60;99.90;;;;;;5007935;28;20393;-63
2021/04/19 09:45:45;;;;;;;;;;;14.40;99.90;;;;;;5017858;28;20476;-57
2021/04/19 09:48:30;;;;;;;5.47;4.85;;;14.40;99.90;;;;;;5013274;28;19930;-62
2021/04/19 09:51:28;;;;;;;6.93;5.18;;;14.70;99.90;;;;;;5017084;28;20193;-63
2021/04/19 09:54:09;;;;;;;6.63;5.60;;;15.00;99.90;;;;;;4999510;28;20042;-64
2021/04/19 09:56:47;;;;;;;4.60;4.10;;;15.50;99.90;;;;;;5022151;28;20033;-63
2021/04/19 09:59:19;;;;;;;6.07;4.45;;;16.60;99.90;;;;;;5005024;28;20071;-63
2021/04/19 10:01:51;;;;;;;4.45;3.90;;;16.40;98.10;;;;;;5010121;28;20068;-64
2021/04/19 10:04:17;;;;;;;9.65;4.63;;;15.90;99.90;;;;;;5020385;28;20056;-64
2021/04/19 10:06:46;;;;;;;4.97;4.18;;;15.80;99.90;;;;;;5009567;28;20491;-63
2021/04/19 10:09:15;;;;;;;6.38;5.03;;;16.00;99.90;;;;;;5013156;28;20447;-62
2021/04/19 10:11:47;;;;;;;5.45;4.45;;;15.90;99.90;;;;;;5013782;28;20035;-62
2021/04/19 10:14:16;;;;;;;6.07;5.15;;;15.90;99.90;;;;;;5007797;28;20028;-63
2021/04/19 10:16:50;;;;;;;5.88;4.55;;;16.10;99.90;;;;;;5007435;28;20018;-63
2021/04/19 10:19:29;;;;;;;6.25;5.63;;;16.50;99.90;;;;;;5003051;28;20430;-62
2021/04/19 10:22:12;;;;;;;6.13;5.53;;;16.90;97.00;;;;;;5003035;28;20058;-63
2021/04/19 10:24:49;;;;;;;9.40;6.40;;;16.70;96.80;;;;;;5009552;28;20118;-62
2021/04/19 10:27:28;;;;;;;8.52;6.03;;;15.90;99.40;;;;;;5004276;28;20032;-65
2021/04/19 10:30:07;;;;;;;7.32;6.10;;;16.10;99.90;;;;;;5009855;28;20109;-64
2021/04/19 10:32:33;;;;;;;8.27;6.72;;;16.30;99.10;;;;;;4992671;28;20038;-62
2021/04/19 10:34:58;;;;;;;8.35;6.72;;;16.30;99.90;;;;;;5007510;28;20052;-64
2021/04/19 10:37:24;;;;;;;6.97;5.88;;;16.80;99.30;;;;;;5014452;28;20034;-64
2021/04/19 10:39:50;;;;;;;10.10;7.05;;;16.80;98.40;;;;;;5012314;28;20034;-63
2021/04/19 10:42:23;;;;;;;11.77;7.55;;;17.00;96.10;;;;;;5019817;28;20105;-64
2021/04/19 10:44:49;;;;;;;7.30;6.60;;;16.40;96.30;;;;;;5013140;28;20053;-61
2021/04/19 10:47:28;;;;;;;7.03;6.15;;;16.30;98.00;;;;;;5014243;28;20281;-64
2021/04/19 10:49:54;;;;;;;8.35;6.95;;;16.70;97.00;;;;;;5013009;28;20033;-63
2021/04/19 10:52:20;;;;;;;9.18;7.18;;;16.60;95.90;;;;;;5017420;28;20160;-64
2021/04/19 10:54:46;;;;;;;8.15;6.13;;;16.50;97.50;;;;;;5010914;28;20040;-60
2021/04/19 10:57:22;;;;;;;7.15;6.25;;;16.50;98.60;;;;;;5015302;28;20030;-63
2021/04/19 10:59:50;;;;;;;12.75;5.68;;;16.10;96.20;;;;;;5017534;28;20475;-63
2021/04/19 11:02:22;;;;;;;9.40;6.85;;;16.30;96.80;;;;;;5008998;28;20041;-65
2021/04/19 11:04:48;;;;;;;9.50;6.85;;;16.40;97.60;;;;;;5007985;28;20014;-60
2021/04/19 11:07:43;;;;;;;8.07;6.68;;;16.60;98.10;;;;;;5010646;28;20009;-65
2021/04/19 11:10:13;;;;;;;7.25;6.15;;;16.80;96.20;;;;;;4992977;28;20112;-64
2021/04/19 11:12:40;;;;;;;8.18;7.38;;;16.80;97.00;;;;;;5007032;28;20149;-64
2021/04/19 11:15:10;;;;;;;10.88;7.38;;;16.60;96.80;;;;;;5017679;28;20052;-65
2021/04/19 11:17:36;;;;;;;10.82;7.72;;;16.40;96.90;;;;;;5011203;28;20044;-64
2021/04/19 11:20:28;;;;;;;9.32;7.30;;;16.10;98.80;;;;;;4997263;28;20054;-64
2021/04/19 11:22:54;;;;;;;8.80;6.70;;;16.60;99.90;;;;;;5009642;28;20075;-65
2021/04/19 11:25:29;;;;;;;10.52;8.57;;;17.20;97.10;;;;;;5012961;28;20026;-66
2021/04/19 11:28:18;;;;;;;9.85;7.43;;;17.30;96.00;;;;;;5009684;28;20022;-64
2021/04/19 11:30:45;;;;;;;10.13;7.72;;;17.10;96.90;;;;;;5009424;28;20026;-65
2021/04/19 11:33:20;;;;;;;8.32;7.00;;;17.70;97.20;;;;;;5007648;28;20022;-65
2021/04/19 11:35:48;;;;;;;10.80;8.32;;;17.40;95.50;;;;;;5009583;28;20113;-63
2021/04/19 11:38:20;;;;;;;9.15;7.72;;;17.50;95.90;;;;;;5003556;28;20439;-63
2021/04/19 11:40:47;;;;;;;11.05;9.48;;;17.50;95.20;;;;;;5020763;28;20567;-60
2021/04/19 11:43:22;;;;;;;12.95;8.90;;;16.80;96.80;;;;;;5004379;28;20439;-62
2021/04/19 11:45:54;;;;;;;11.55;9.43;;;16.70;97.50;;;;;;5008909;28;20197;-62
2021/04/19 11:48:20;;;;;;;10.85;8.90;;;16.60;99.20;;;;;;5009180;28;20526;-64
2021/04/19 11:50:46;;;;;;;10.85;8.90;;;16.90;97.90;;;;;;5009750;28;20058;-60
2021/04/19 11:53:25;;;;;;;11.10;8.85;;;17.10;97.10;;;;;;5017903;28;20441;-63
2021/04/19 11:55:52;;;;;;;11.75;8.45;;;17.30;95.60;;;;;;5015091;28;20060;-64
2021/04/19 11:58:18;;;;;;;10.23;8.35;;;17.30;94.30;;;;;;5015015;28;20057;-64
2021/04/19 12:00:44;;;;;;;12.65;10.13;;;17.40;96.80;;;;;;5017099;28;20360;-63
2021/04/19 12:03:10;;;;;;;14.93;10.85;;;17.20;95.90;;;;;;5013736;28;20049;-63
2021/04/19 12:05:36;;;;;;;14.70;10.27;;;16.80;97.70;;;;;;5008669;28;20519;-63
2021/04/19 12:08:01;;;;;;;13.70;10.93;;;16.30;98.00;;;;;;5010774;28;20750;-63
2021/04/19 12:10:27;;;;;;;15.55;10.73;;;15.90;98.60;;;;;;5022834;28;20062;-64
2021/04/19 12:12:52;;;;;;;21.25;12.77;;;15.40;99.90;;;;;;5009184;28;20036;-63
2021/04/19 12:15:18;;;;;;;16.00;11.73;;;15.00;99.90;;;;;;5010631;28;20042;-62
2021/04/19 12:17:43;;;;;;;16.55;11.68;;;14.70;99.90;;;;;;5008867;28;20037;-62
2021/04/19 12:20:09;;;;;;;18.88;12.32;;;14.50;99.90;;;;;;4995383;28;20040;-63
2021/04/19 12:22:35;;;;;;;13.65;11.48;;;14.30;99.90;;;;;;5014050;28;20093;-63
2021/04/19 12:25:00;;;;;;;15.90;11.90;;;14.30;99.90;;;;;;5009335;28;20100;-63
2021/04/19 12:27:26;;;;;;;15.30;11.02;;;14.10;99.90;;;;;;5009302;28;20084;-63
2021/04/19 12:29:52;;;;;;;15.68;12.85;;;14.10;99.90;;;;;;5008537;28;20044;-63
2021/04/19 12:32:17;;;;;;;53.83;36.90;;;14.00;99.90;;;;;;5008938;28;20053;-63
2021/04/19 12:34:43;;;;;;;27.63;17.58;;;13.90;99.90;;;;;;5016225;28;20033;-63
2021/04/19 12:37:08;;;;;;;23.85;15.80;;;13.90;99.90;;;;;;5009158;28;20104;-63
2021/04/19 12:39:34;;;;;;;21.55;16.15;;;13.80;99.90;;;;;;5006354;28;20037;-63
2021/04/19 12:41:59;;;;;;;25.25;16.25;;;13.90;99.90;;;;;;5005025;28;20022;-63
2021/04/19 12:44:25;;;;;;;23.00;16.92;;;14.00;99.90;;;;;;5012381;28;20029;-63
2021/04/19 12:46:52;;;;;;;22.60;17.15;;;14.10;99.90;;;;;;5005548;28;20026;-62
2021/04/19 12:49:20;;;;;;;27.45;16.10;;;14.20;99.90;;;;;;4997519;28;20030;-64
2021/04/19 12:51:46;;;;;;;19.05;15.85;;;14.20;99.90;;;;;;4999051;28;20815;-62